DGFRA EDLP-EDDC
Flight info
| Callsign | DGFRA |
|---|---|
| Flight time | N/A |
| Altitude | 17000 |
| Route | GISDI1X GISDI DCT KATCE DCT OSKAN OSKAN4B |
| Aircraft | DA42/L-BDGLORVWY/S |
Departure
| Time | N/A |
|---|---|
| Airport | Paderborn Lippstadt Airport (EDLP) |
Arrival
| Time | 2026-05-08 21:21 |
|---|---|
| Airport | Dresden Airport (EDDC) |
| Time | Latitude | Longitude | Altitude | Speed | Heading |
|---|---|---|---|---|---|
| 2026-05-08 20:46 | 51.19487 | 10.86008 | 17179 ft | 210 kts | 96° |
| 2026-05-08 20:46 | 51.19333 | 10.88326 | 17181 ft | 210 kts | 96° |
| 2026-05-08 20:47 | 51.19181 | 10.90642 | 17179 ft | 210 kts | 96° |
| 2026-05-08 20:47 | 51.19029 | 10.92959 | 17180 ft | 210 kts | 96° |
| 2026-05-08 20:47 | 51.18875 | 10.95280 | 17179 ft | 210 kts | 96° |
| 2026-05-08 20:47 | 51.18722 | 10.97596 | 17179 ft | 210 kts | 96° |
| 2026-05-08 20:48 | 51.18567 | 10.99918 | 17179 ft | 211 kts | 96° |
| 2026-05-08 20:48 | 51.18412 | 11.02244 | 17179 ft | 211 kts | 96° |
| 2026-05-08 20:48 | 51.18256 | 11.04572 | 17179 ft | 211 kts | 96° |
| 2026-05-08 20:48 | 51.18100 | 11.06899 | 17179 ft | 211 kts | 96° |
| 2026-05-08 20:49 | 51.17943 | 11.09226 | 17180 ft | 211 kts | 96° |
| 2026-05-08 20:49 | 51.17786 | 11.11556 | 17180 ft | 212 kts | 96° |
| 2026-05-08 20:49 | 51.17628 | 11.13887 | 17180 ft | 212 kts | 96° |
| 2026-05-08 20:49 | 51.17470 | 11.16222 | 17180 ft | 212 kts | 96° |
| 2026-05-08 20:50 | 51.17313 | 11.18522 | 17180 ft | 212 kts | 96° |
| 2026-05-08 20:50 | 51.17152 | 11.20885 | 17180 ft | 212 kts | 96° |
| 2026-05-08 20:50 | 51.16992 | 11.23218 | 17180 ft | 212 kts | 96° |
| 2026-05-08 20:50 | 51.16831 | 11.25555 | 17179 ft | 212 kts | 96° |
| 2026-05-08 20:51 | 51.16670 | 11.27889 | 17182 ft | 212 kts | 96° |
| 2026-05-08 20:51 | 51.16509 | 11.30221 | 17180 ft | 212 kts | 96° |
| 2026-05-08 20:51 | 51.16347 | 11.32560 | 17179 ft | 212 kts | 96° |
| 2026-05-08 20:51 | 51.16184 | 11.34895 | 17179 ft | 212 kts | 96° |
| 2026-05-08 20:52 | 51.16021 | 11.37232 | 17180 ft | 212 kts | 96° |
| 2026-05-08 20:52 | 51.15860 | 11.39536 | 17178 ft | 212 kts | 96° |
| 2026-05-08 20:52 | 51.15696 | 11.41871 | 17178 ft | 212 kts | 96° |
| 2026-05-08 20:52 | 51.15532 | 11.44203 | 17182 ft | 212 kts | 96° |
| 2026-05-08 20:53 | 51.15367 | 11.46539 | 17179 ft | 212 kts | 96° |
| 2026-05-08 20:53 | 51.15202 | 11.48872 | 17179 ft | 212 kts | 96° |
| 2026-05-08 20:53 | 51.15035 | 11.51210 | 17178 ft | 212 kts | 96° |
| 2026-05-08 20:53 | 51.14870 | 11.53543 | 17182 ft | 212 kts | 96° |
| 2026-05-08 20:54 | 51.14703 | 11.55878 | 17178 ft | 212 kts | 96° |
| 2026-05-08 20:54 | 51.14536 | 11.58212 | 17178 ft | 212 kts | 97° |
| 2026-05-08 20:54 | 51.14368 | 11.60545 | 17180 ft | 212 kts | 96° |
| 2026-05-08 20:54 | 51.14200 | 11.62879 | 17178 ft | 212 kts | 97° |
| 2026-05-08 20:55 | 51.14032 | 11.65210 | 17179 ft | 212 kts | 97° |
| 2026-05-08 20:55 | 51.13863 | 11.67545 | 17178 ft | 212 kts | 97° |
| 2026-05-08 20:55 | 51.13693 | 11.69880 | 17178 ft | 212 kts | 97° |
| 2026-05-08 20:55 | 51.13524 | 11.72213 | 17178 ft | 212 kts | 97° |
| 2026-05-08 20:56 | 51.13353 | 11.74546 | 17179 ft | 212 kts | 97° |
| 2026-05-08 20:56 | 51.13182 | 11.76882 | 17178 ft | 213 kts | 97° |
| 2026-05-08 20:56 | 51.13010 | 11.79217 | 17178 ft | 212 kts | 97° |
| 2026-05-08 20:56 | 51.12839 | 11.81549 | 17182 ft | 212 kts | 97° |
| 2026-05-08 20:57 | 51.12666 | 11.83885 | 17177 ft | 212 kts | 97° |
| 2026-05-08 20:57 | 51.12494 | 11.86218 | 17178 ft | 212 kts | 97° |
| 2026-05-08 20:57 | 51.12320 | 11.88554 | 17177 ft | 212 kts | 97° |
| 2026-05-08 20:57 | 51.12146 | 11.90888 | 17178 ft | 212 kts | 97° |
| 2026-05-08 20:58 | 51.11972 | 11.93223 | 17176 ft | 213 kts | 97° |
| 2026-05-08 20:58 | 51.11797 | 11.95559 | 17175 ft | 213 kts | 97° |
| 2026-05-08 20:58 | 51.11622 | 11.97898 | 17176 ft | 213 kts | 97° |
| 2026-05-08 20:58 | 51.11446 | 12.00235 | 17176 ft | 213 kts | 97° |
| 2026-05-08 20:59 | 51.11269 | 12.02573 | 17174 ft | 213 kts | 97° |
| 2026-05-08 20:59 | 51.11092 | 12.04908 | 17173 ft | 213 kts | 97° |
| 2026-05-08 20:59 | 51.10914 | 12.07252 | 17172 ft | 213 kts | 97° |
| 2026-05-08 20:59 | 51.10736 | 12.09588 | 17175 ft | 213 kts | 97° |
| 2026-05-08 21:00 | 51.10558 | 12.11925 | 17172 ft | 213 kts | 97° |
| 2026-05-08 21:00 | 51.10380 | 12.14264 | 17171 ft | 213 kts | 97° |
| 2026-05-08 21:00 | 51.10200 | 12.16599 | 17174 ft | 213 kts | 97° |
| 2026-05-08 21:00 | 51.10020 | 12.18940 | 17174 ft | 213 kts | 97° |
| 2026-05-08 21:01 | 51.09840 | 12.21273 | 17177 ft | 213 kts | 97° |
| 2026-05-08 21:01 | 51.09659 | 12.23612 | 17178 ft | 213 kts | 97° |
| 2026-05-08 21:01 | 51.09478 | 12.25950 | 17178 ft | 213 kts | 97° |
| 2026-05-08 21:01 | 51.09296 | 12.28287 | 17179 ft | 213 kts | 97° |
| 2026-05-08 21:02 | 51.09114 | 12.30621 | 17178 ft | 213 kts | 97° |
| 2026-05-08 21:02 | 51.08932 | 12.32955 | 17178 ft | 213 kts | 97° |
| 2026-05-08 21:02 | 51.08749 | 12.35288 | 17181 ft | 213 kts | 97° |
| 2026-05-08 21:02 | 51.08566 | 12.37619 | 17178 ft | 212 kts | 97° |
| 2026-05-08 21:03 | 51.08382 | 12.39951 | 17177 ft | 212 kts | 97° |
| 2026-05-08 21:03 | 51.08198 | 12.42283 | 17177 ft | 213 kts | 97° |
| 2026-05-08 21:03 | 51.08014 | 12.44614 | 17177 ft | 212 kts | 97° |
| 2026-05-08 21:03 | 51.07828 | 12.46945 | 17181 ft | 212 kts | 97° |
| 2026-05-08 21:04 | 51.07643 | 12.49273 | 17178 ft | 213 kts | 97° |
| 2026-05-08 21:04 | 51.07456 | 12.51622 | 17091 ft | 217 kts | 97° |
| 2026-05-08 21:04 | 51.07262 | 12.54044 | 16852 ft | 225 kts | 97° |
| 2026-05-08 21:04 | 51.07062 | 12.56519 | 16565 ft | 232 kts | 97° |
| 2026-05-08 21:05 | 51.06855 | 12.59084 | 16263 ft | 236 kts | 97° |
| 2026-05-08 21:05 | 51.06645 | 12.61685 | 15950 ft | 239 kts | 97° |
| 2026-05-08 21:05 | 51.06433 | 12.64313 | 15633 ft | 240 kts | 97° |
| 2026-05-08 21:05 | 51.06220 | 12.66948 | 15314 ft | 240 kts | 97° |
| 2026-05-08 21:06 | 51.06006 | 12.69582 | 14996 ft | 240 kts | 97° |
| 2026-05-08 21:06 | 51.05791 | 12.72215 | 14677 ft | 240 kts | 97° |
| 2026-05-08 21:06 | 51.05576 | 12.74838 | 14362 ft | 239 kts | 98° |
| 2026-05-08 21:06 | 51.05362 | 12.77449 | 14049 ft | 238 kts | 98° |
| 2026-05-08 21:07 | 51.05148 | 12.80045 | 13711 ft | 237 kts | 98° |
| 2026-05-08 21:07 | 51.04935 | 12.82628 | 13390 ft | 235 kts | 98° |
| 2026-05-08 21:07 | 51.04723 | 12.85189 | 13082 ft | 233 kts | 98° |
| 2026-05-08 21:07 | 51.04512 | 12.87735 | 12770 ft | 231 kts | 98° |
| 2026-05-08 21:08 | 51.04302 | 12.90261 | 12461 ft | 230 kts | 98° |
| 2026-05-08 21:08 | 51.04092 | 12.92773 | 12165 ft | 229 kts | 98° |
| 2026-05-08 21:08 | 51.03883 | 12.95272 | 11863 ft | 228 kts | 98° |
| 2026-05-08 21:08 | 51.03675 | 12.97761 | 11563 ft | 227 kts | 98° |
| 2026-05-08 21:09 | 51.03466 | 13.00240 | 11267 ft | 226 kts | 98° |
| 2026-05-08 21:09 | 51.03259 | 13.02703 | 10967 ft | 225 kts | 98° |
| 2026-05-08 21:09 | 51.03051 | 13.05158 | 10670 ft | 224 kts | 98° |
| 2026-05-08 21:09 | 51.02844 | 13.07607 | 10372 ft | 223 kts | 98° |
| 2026-05-08 21:10 | 51.02637 | 13.10040 | 10080 ft | 222 kts | 98° |
| 2026-05-08 21:10 | 51.02500 | 13.11645 | 9870 ft | 221 kts | 98° |
| 2026-05-08 21:10 | 51.02295 | 13.14052 | 9569 ft | 219 kts | 98° |
| 2026-05-08 21:10 | 51.02091 | 13.16442 | 9284 ft | 217 kts | 98° |
| 2026-05-08 21:11 | 51.01887 | 13.18815 | 8997 ft | 216 kts | 98° |
| 2026-05-08 21:11 | 51.01685 | 13.21174 | 8713 ft | 215 kts | 98° |
| 2026-05-08 21:11 | 51.01483 | 13.23521 | 8430 ft | 214 kts | 98° |
| 2026-05-08 21:11 | 51.01281 | 13.25854 | 8152 ft | 213 kts | 98° |
| 2026-05-08 21:12 | 51.01078 | 13.28197 | 7795 ft | 215 kts | 98° |
| 2026-05-08 21:12 | 51.00873 | 13.30555 | 7423 ft | 215 kts | 98° |
| 2026-05-08 21:12 | 51.00670 | 13.32895 | 7056 ft | 214 kts | 98° |
| 2026-05-08 21:12 | 51.00470 | 13.35215 | 6691 ft | 210 kts | 98° |
| 2026-05-08 21:13 | 51.00269 | 13.37489 | 6284 ft | 206 kts | 98° |
| 2026-05-08 21:13 | 51.00075 | 13.39689 | 6080 ft | 195 kts | 98° |
| 2026-05-08 21:13 | 50.99894 | 13.41765 | 5951 ft | 186 kts | 98° |
| 2026-05-08 21:13 | 50.99717 | 13.43798 | 5771 ft | 189 kts | 98° |
| 2026-05-08 21:14 | 50.99531 | 13.45899 | 5519 ft | 194 kts | 98° |
| 2026-05-08 21:14 | 50.99342 | 13.48036 | 5261 ft | 197 kts | 98° |
| 2026-05-08 21:14 | 50.99152 | 13.50195 | 4989 ft | 198 kts | 98° |
| 2026-05-08 21:14 | 50.98958 | 13.52360 | 4707 ft | 198 kts | 98° |
| 2026-05-08 21:15 | 50.98761 | 13.54518 | 4425 ft | 197 kts | 98° |
| 2026-05-08 21:15 | 50.98781 | 13.56642 | 4249 ft | 191 kts | 72° |
| 2026-05-08 21:15 | 50.99511 | 13.58324 | 4064 ft | 186 kts | 37° |
| 2026-05-08 21:15 | 51.00613 | 13.59393 | 3830 ft | 186 kts | 34° |
| 2026-05-08 21:16 | 51.01641 | 13.60638 | 3577 ft | 184 kts | 40° |
| 2026-05-08 21:16 | 51.02518 | 13.61801 | 3351 ft | 148 kts | 41° |
| 2026-05-08 21:16 | 51.03247 | 13.62805 | 3164 ft | 132 kts | 41° |
| 2026-05-08 21:16 | 51.03915 | 13.63721 | 2986 ft | 122 kts | 42° |
| 2026-05-08 21:17 | 51.04529 | 13.64564 | 2828 ft | 112 kts | 42° |
| 2026-05-08 21:17 | 51.05099 | 13.65346 | 2691 ft | 103 kts | 43° |
| 2026-05-08 21:17 | 51.05613 | 13.66052 | 2533 ft | 97 kts | 43° |
| 2026-05-08 21:17 | 51.06124 | 13.66751 | 2417 ft | 97 kts | 43° |
| 2026-05-08 21:18 | 51.06639 | 13.67458 | 2278 ft | 98 kts | 43° |
| 2026-05-08 21:18 | 51.07158 | 13.68171 | 2145 ft | 99 kts | 43° |
| 2026-05-08 21:18 | 51.07689 | 13.68900 | 2010 ft | 103 kts | 43° |
| 2026-05-08 21:18 | 51.08221 | 13.69632 | 1886 ft | 96 kts | 43° |
| 2026-05-08 21:19 | 51.08713 | 13.70308 | 1732 ft | 90 kts | 43° |
| 2026-05-08 21:19 | 51.09178 | 13.70941 | 1602 ft | 86 kts | 41° |
| 2026-05-08 21:19 | 51.09632 | 13.71540 | 1483 ft | 83 kts | 40° |
| 2026-05-08 21:19 | 51.10056 | 13.72138 | 1414 ft | 81 kts | 40° |
| 2026-05-08 21:20 | 51.10491 | 13.72738 | 1305 ft | 85 kts | 41° |
| 2026-05-08 21:20 | 51.10947 | 13.73370 | 1176 ft | 88 kts | 38° |
| 2026-05-08 21:20 | 51.11413 | 13.74012 | 1049 ft | 89 kts | 39° |
| 2026-05-08 21:20 | 51.11881 | 13.74652 | 918 ft | 88 kts | 40° |
| 2026-05-08 21:21 | 51.12334 | 13.75280 | 798 ft | 86 kts | 38° |
| 2026-05-08 21:21 | 51.12770 | 13.75888 | 702 ft | 69 kts | 40° |
| 2026-05-08 21:21 | 51.13055 | 13.76277 | 706 ft | 49 kts | 41° |
| 2026-05-08 21:21 | 51.13328 | 13.76653 | 706 ft | 43 kts | 41° |
| 2026-05-08 21:22 | 51.13335 | 13.76805 | 702 ft | 18 kts | 131° |
| 2026-05-08 21:22 | 51.13258 | 13.76948 | 705 ft | 16 kts | 132° |
| 2026-05-08 21:22 | 51.13159 | 13.76900 | 705 ft | 21 kts | 220° |
| 2026-05-08 21:22 | 51.13059 | 13.76762 | 700 ft | 19 kts | 220° |
| 2026-05-08 21:23 | 51.12925 | 13.76577 | 701 ft | 30 kts | 220° |
| 2026-05-08 21:23 | 51.12783 | 13.76383 | 705 ft | 24 kts | 216° |
| 2026-05-08 21:23 | 51.12671 | 13.76227 | 705 ft | 21 kts | 221° |
| 2026-05-08 21:23 | 51.12546 | 13.76057 | 705 ft | 23 kts | 220° |
| 2026-05-08 21:24 | 51.12452 | 13.75930 | 702 ft | 12 kts | 207° |
| 2026-05-08 21:24 | 51.12392 | 13.76005 | 705 ft | 12 kts | 131° |
| 2026-05-08 21:24 | 51.12332 | 13.76001 | 699 ft | 7 kts | 220° |
| 2026-05-08 21:24 | 51.12308 | 13.75978 | 702 ft | 3 kts | 139° |
| 2026-05-08 21:25 | 51.12295 | 13.76008 | 705 ft | 3 kts | 133° |
| 2026-05-08 21:25 | 51.12281 | 13.76016 | 705 ft | 0 kts | 227° |